This is the latest recevied weather packets stored in our database for station/object HK6RM-17. If no packets are shown the sender has not sent any weather packets the latest 10 day(s).
| Time | Temp. | Humidity | Pressure | Rain* | Wind** | Luminosity | Snow |
|---|---|---|---|---|---|---|---|
| 1787497887 | 20.56° C | 68% | 1016 hPa | 0 mm | - | - | - |
| 1787497286 | 20.56° C | 68% | 1016 hPa | 0 mm | - | - | - |
| 1787496686 | 17.78° C | 64% | 1016 hPa | 0 mm | - | - | - |
| 1787496086 | 17.78° C | 64% | 1016 hPa | 0 mm | - | - | - |
| 1787495485 | 18.33° C | 63% | 1016 hPa | 0 mm | - | - | - |
| 1787494885 | 18.89° C | 63% | 1016 hPa | 0 mm | - | - | - |
| 1787494284 | 19.44° C | 63% | 1016 hPa | 0 mm | - | - | - |
| 1787493684 | 19.44° C | 63% | 1016 hPa | 0 mm | - | - | - |
| 1787493083 | 20° C | 63% | 1016 hPa | 0 mm | - | - | - |
| 1787492483 | 15.56° C | 76% | 1017 hPa | 0 mm | - | - | - |
| 1787491883 | 15.56° C | 76% | 1017 hPa | 0 mm | - | - | - |
| 1787491282 | 15.56° C | 76% | 1017 hPa | 0 mm | - | - | - |
| 1787490682 | 15° C | 77% | 1017 hPa | 0 mm | - | - | - |
| 1787490081 | 15.56° C | 77% | 1017 hPa | 0 mm | - | - | - |
| 1787489481 | 15.56° C | 77% | 1017 hPa | 0 mm | - | - | - |
| 1787488880 | 16.11° C | 77% | 1017 hPa | 0 mm | - | - | - |
| 1787488280 | 12.78° C | 82% | 1017 hPa | 0 mm | - | - | - |
| 1787487679 | 13.33° C | 82% | 1017 hPa | 0 mm | - | - | - |
| 1787487079 | 13.89° C | 82% | 1017 hPa | 0 mm | - | - | - |
| 1787486478 | 13.89° C | 82% | 1017 hPa | 0 mm | - | - | - |
| 1787485878 | 14.44° C | 82% | 1017 hPa | 0 mm | - | - | - |
| 1787485277 | 15° C | 82% | 1017 hPa | 0 mm | - | - | - |
| 1787484677 | 10.56° C | 82% | 1017 hPa | 0 mm | - | - | - |
| 1787484076 | 10.56° C | 82% | 1017 hPa | 0 mm | - | - | - |
| 1787483476 | 10.56° C | 82% | 1017 hPa | 0 mm | - | - | - |
* Rain latest hour (hover to see other rain measurements)
** Current wind speed in m/s (hover to see current wind gust speed)